sensor_id;sensor_type;location;lat;lon;timestamp;P1;durP1;ratioP1;P2;durP2;ratioP2
18013;SDS011;9132;47.946;10.394;2022-07-29T00:01:25;2.35;;;1.65;;
18013;SDS011;9132;47.946;10.394;2022-07-29T00:03:52;2.53;;;1.73;;
18013;SDS011;9132;47.946;10.394;2022-07-29T00:06:18;1.55;;;1.42;;
18013;SDS011;9132;47.946;10.394;2022-07-29T00:08:45;4.43;;;1.70;;
18013;SDS011;9132;47.946;10.394;2022-07-29T00:11:12;2.03;;;1.60;;
18013;SDS011;9132;47.946;10.394;2022-07-29T00:13:39;3.10;;;1.77;;
18013;SDS011;9132;47.946;10.394;2022-07-29T00:16:06;2.55;;;1.70;;
18013;SDS011;9132;47.946;10.394;2022-07-29T00:18:32;2.38;;;1.60;;
18013;SDS011;9132;47.946;10.394;2022-07-29T00:20:58;1.63;;;1.50;;
18013;SDS011;9132;47.946;10.394;2022-07-29T00:23:25;3.35;;;1.77;;
18013;SDS011;9132;47.946;10.394;2022-07-29T00:25:51;3.40;;;1.73;;
18013;SDS011;9132;47.946;10.394;2022-07-29T00:28:17;2.17;;;1.75;;
18013;SDS011;9132;47.946;10.394;2022-07-29T00:30:45;2.42;;;1.92;;
18013;SDS011;9132;47.946;10.394;2022-07-29T00:33:11;2.03;;;1.90;;
18013;SDS011;9132;47.946;10.394;2022-07-29T00:35:38;2.03;;;1.73;;
18013;SDS011;9132;47.946;10.394;2022-07-29T00:38:09;3.08;;;1.75;;
18013;SDS011;9132;47.946;10.394;2022-07-29T00:40:35;2.03;;;1.90;;
18013;SDS011;9132;47.946;10.394;2022-07-29T00:43:02;5.00;;;2.50;;
18013;SDS011;9132;47.946;10.394;2022-07-29T00:45:28;3.80;;;2.03;;
18013;SDS011;9132;47.946;10.394;2022-07-29T00:47:56;2.70;;;2.22;;
18013;SDS011;9132;47.946;10.394;2022-07-29T00:50:22;2.55;;;1.92;;
18013;SDS011;9132;47.946;10.394;2022-07-29T00:52:49;2.63;;;1.95;;
18013;SDS011;9132;47.946;10.394;2022-07-29T00:55:16;1.92;;;1.83;;
18013;SDS011;9132;47.946;10.394;2022-07-29T00:57:43;3.05;;;1.88;;
18013;SDS011;9132;47.946;10.394;2022-07-29T01:00:10;2.28;;;2.08;;
18013;SDS011;9132;47.946;10.394;2022-07-29T01:02:37;2.10;;;1.75;;
18013;SDS011;9132;47.946;10.394;2022-07-29T01:05:05;3.38;;;2.10;;
18013;SDS011;9132;47.946;10.394;2022-07-29T01:07:32;2.33;;;2.13;;
18013;SDS011;9132;47.946;10.394;2022-07-29T01:09:59;2.40;;;2.17;;
18013;SDS011;9132;47.946;10.394;2022-07-29T01:12:26;2.50;;;2.30;;
18013;SDS011;9132;47.946;10.394;2022-07-29T01:14:53;3.95;;;2.30;;
18013;SDS011;9132;47.946;10.394;2022-07-29T01:17:21;2.30;;;2.08;;
18013;SDS011;9132;47.946;10.394;2022-07-29T01:19:51;2.90;;;2.53;;
18013;SDS011;9132;47.946;10.394;2022-07-29T01:22:24;2.08;;;1.90;;
18013;SDS011;9132;47.946;10.394;2022-07-29T01:24:57;2.65;;;2.10;;
18013;SDS011;9132;47.946;10.394;2022-07-29T01:27:32;2.20;;;2.00;;
18013;SDS011;9132;47.946;10.394;2022-07-29T01:30:06;2.97;;;2.13;;
18013;SDS011;9132;47.946;10.394;2022-07-29T01:32:33;2.47;;;2.15;;
18013;SDS011;9132;47.946;10.394;2022-07-29T01:35:02;2.70;;;1.90;;
18013;SDS011;9132;47.946;10.394;2022-07-29T01:37:29;3.17;;;2.30;;
18013;SDS011;9132;47.946;10.394;2022-07-29T01:39:58;2.53;;;2.00;;
18013;SDS011;9132;47.946;10.394;2022-07-29T01:42:27;2.50;;;2.30;;
18013;SDS011;9132;47.946;10.394;2022-07-29T01:44:56;2.65;;;2.00;;
18013;SDS011;9132;47.946;10.394;2022-07-29T01:47:25;3.00;;;2.40;;
18013;SDS011;9132;47.946;10.394;2022-07-29T01:49:52;5.15;;;2.60;;
18013;SDS011;9132;47.946;10.394;2022-07-29T01:52:21;3.50;;;2.22;;
18013;SDS011;9132;47.946;10.394;2022-07-29T01:54:51;2.67;;;2.10;;
18013;SDS011;9132;47.946;10.394;2022-07-29T01:57:18;3.22;;;2.20;;
18013;SDS011;9132;47.946;10.394;2022-07-29T01:59:47;2.20;;;1.90;;
18013;SDS011;9132;47.946;10.394;2022-07-29T02:02:14;3.20;;;2.15;;
18013;SDS011;9132;47.946;10.394;2022-07-29T02:04:42;2.20;;;2.00;;
18013;SDS011;9132;47.946;10.394;2022-07-29T02:07:10;2.30;;;2.10;;
18013;SDS011;9132;47.946;10.394;2022-07-29T02:09:38;2.85;;;1.90;;
18013;SDS011;9132;47.946;10.394;2022-07-29T02:12:05;2.42;;;2.03;;
18013;SDS011;9132;47.946;10.394;2022-07-29T02:14:36;2.97;;;2.15;;
18013;SDS011;9132;47.946;10.394;2022-07-29T02:17:02;2.15;;;1.95;;
18013;SDS011;9132;47.946;10.394;2022-07-29T02:19:29;3.78;;;1.95;;
18013;SDS011;9132;47.946;10.394;2022-07-29T02:21:59;2.40;;;1.98;;
18013;SDS011;9132;47.946;10.394;2022-07-29T02:24:26;2.20;;;2.00;;
18013;SDS011;9132;47.946;10.394;2022-07-29T02:26:53;2.67;;;1.70;;
18013;SDS011;9132;47.946;10.394;2022-07-29T02:29:21;2.45;;;1.95;;
18013;SDS011;9132;47.946;10.394;2022-07-29T02:31:49;2.25;;;1.60;;
18013;SDS011;9132;47.946;10.394;2022-07-29T02:34:17;2.35;;;1.80;;
18013;SDS011;9132;47.946;10.394;2022-07-29T02:36:44;2.63;;;1.50;;
18013;SDS011;9132;47.946;10.394;2022-07-29T02:39:12;1.73;;;1.63;;
18013;SDS011;9132;47.946;10.394;2022-07-29T02:41:41;2.30;;;2.10;;
18013;SDS011;9132;47.946;10.394;2022-07-29T02:44:09;1.85;;;1.75;;
18013;SDS011;9132;47.946;10.394;2022-07-29T02:46:36;2.28;;;1.90;;
18013;SDS011;9132;47.946;10.394;2022-07-29T02:49:06;1.48;;;1.35;;
18013;SDS011;9132;47.946;10.394;2022-07-29T02:51:37;3.28;;;1.80;;
18013;SDS011;9132;47.946;10.394;2022-07-29T02:54:07;1.77;;;1.65;;
18013;SDS011;9132;47.946;10.394;2022-07-29T02:56:35;2.00;;;1.77;;
18013;SDS011;9132;47.946;10.394;2022-07-29T02:59:03;2.90;;;1.63;;
18013;SDS011;9132;47.946;10.394;2022-07-29T03:01:30;2.08;;;1.45;;
18013;SDS011;9132;47.946;10.394;2022-07-29T03:03:57;2.33;;;1.92;;
18013;SDS011;9132;47.946;10.394;2022-07-29T03:06:26;2.72;;;2.28;;
18013;SDS011;9132;47.946;10.394;2022-07-29T03:08:53;2.22;;;2.00;;
18013;SDS011;9132;47.946;10.394;2022-07-29T03:11:19;3.97;;;1.88;;
18013;SDS011;9132;47.946;10.394;2022-07-29T03:13:48;2.10;;;1.70;;
18013;SDS011;9132;47.946;10.394;2022-07-29T03:16:14;2.35;;;1.80;;
18013;SDS011;9132;47.946;10.394;2022-07-29T03:18:41;6.03;;;2.13;;
18013;SDS011;9132;47.946;10.394;2022-07-29T03:21:07;2.53;;;2.30;;
18013;SDS011;9132;47.946;10.394;2022-07-29T03:23:34;3.30;;;2.20;;
18013;SDS011;9132;47.946;10.394;2022-07-29T03:26:00;5.40;;;2.25;;
18013;SDS011;9132;47.946;10.394;2022-07-29T03:28:26;3.22;;;1.98;;
18013;SDS011;9132;47.946;10.394;2022-07-29T03:30:54;2.20;;;2.00;;
18013;SDS011;9132;47.946;10.394;2022-07-29T03:33:20;2.38;;;2.15;;
18013;SDS011;9132;47.946;10.394;2022-07-29T03:35:47;4.40;;;2.17;;
18013;SDS011;9132;47.946;10.394;2022-07-29T03:38:13;3.90;;;2.15;;
18013;SDS011;9132;47.946;10.394;2022-07-29T03:40:40;3.28;;;2.28;;
18013;SDS011;9132;47.946;10.394;2022-07-29T03:43:08;3.15;;;1.80;;
18013;SDS011;9132;47.946;10.394;2022-07-29T03:45:35;2.33;;;1.80;;
18013;SDS011;9132;47.946;10.394;2022-07-29T03:48:05;1.67;;;1.55;;
18013;SDS011;9132;47.946;10.394;2022-07-29T03:50:33;1.80;;;1.70;;
18013;SDS011;9132;47.946;10.394;2022-07-29T03:53:00;2.05;;;1.67;;
18013;SDS011;9132;47.946;10.394;2022-07-29T03:55:26;1.98;;;1.70;;
18013;SDS011;9132;47.946;10.394;2022-07-29T03:57:54;3.90;;;2.00;;
18013;SDS011;9132;47.946;10.394;2022-07-29T04:00:22;1.75;;;1.65;;
18013;SDS011;9132;47.946;10.394;2022-07-29T04:02:49;2.22;;;1.73;;
18013;SDS011;9132;47.946;10.394;2022-07-29T04:05:17;2.28;;;1.90;;
18013;SDS011;9132;47.946;10.394;2022-07-29T04:07:43;2.08;;;1.70;;
18013;SDS011;9132;47.946;10.394;2022-07-29T04:10:10;3.83;;;2.08;;
18013;SDS011;9132;47.946;10.394;2022-07-29T04:12:36;2.08;;;1.60;;
18013;SDS011;9132;47.946;10.394;2022-07-29T04:15:03;1.88;;;1.73;;
18013;SDS011;9132;47.946;10.394;2022-07-29T04:17:29;2.80;;;1.65;;
18013;SDS011;9132;47.946;10.394;2022-07-29T04:19:56;1.77;;;1.48;;
18013;SDS011;9132;47.946;10.394;2022-07-29T04:22:23;1.73;;;1.60;;
18013;SDS011;9132;47.946;10.394;2022-07-29T04:24:50;1.70;;;1.60;;
18013;SDS011;9132;47.946;10.394;2022-07-29T04:27:16;2.80;;;1.80;;
18013;SDS011;9132;47.946;10.394;2022-07-29T04:29:42;1.92;;;1.73;;
18013;SDS011;9132;47.946;10.394;2022-07-29T04:32:09;1.30;;;1.20;;
18013;SDS011;9132;47.946;10.394;2022-07-29T04:34:35;1.70;;;1.60;;
18013;SDS011;9132;47.946;10.394;2022-07-29T04:37:01;1.88;;;1.75;;
18013;SDS011;9132;47.946;10.394;2022-07-29T04:39:29;1.70;;;1.60;;
18013;SDS011;9132;47.946;10.394;2022-07-29T04:41:55;2.38;;;1.40;;
18013;SDS011;9132;47.946;10.394;2022-07-29T04:44:21;2.00;;;1.45;;
18013;SDS011;9132;47.946;10.394;2022-07-29T04:46:48;1.85;;;1.48;;
18013;SDS011;9132;47.946;10.394;2022-07-29T04:49:14;2.13;;;1.42;;
18013;SDS011;9132;47.946;10.394;2022-07-29T04:51:40;2.53;;;1.50;;
18013;SDS011;9132;47.946;10.394;2022-07-29T04:54:07;1.42;;;1.33;;
18013;SDS011;9132;47.946;10.394;2022-07-29T04:56:34;2.38;;;1.83;;
18013;SDS011;9132;47.946;10.394;2022-07-29T04:59:00;4.60;;;1.70;;
18013;SDS011;9132;47.946;10.394;2022-07-29T05:01:27;2.20;;;1.48;;
18013;SDS011;9132;47.946;10.394;2022-07-29T05:03:53;1.63;;;1.40;;
18013;SDS011;9132;47.946;10.394;2022-07-29T05:06:19;2.03;;;1.55;;
18013;SDS011;9132;47.946;10.394;2022-07-29T05:08:46;1.60;;;1.50;;
18013;SDS011;9132;47.946;10.394;2022-07-29T05:11:12;2.63;;;1.67;;
18013;SDS011;9132;47.946;10.394;2022-07-29T05:13:40;1.70;;;1.60;;
18013;SDS011;9132;47.946;10.394;2022-07-29T05:16:06;2.10;;;1.50;;
18013;SDS011;9132;47.946;10.394;2022-07-29T05:18:33;1.65;;;1.40;;
18013;SDS011;9132;47.946;10.394;2022-07-29T05:20:59;3.20;;;1.58;;
18013;SDS011;9132;47.946;10.394;2022-07-29T05:23:26;1.55;;;1.45;;
18013;SDS011;9132;47.946;10.394;2022-07-29T05:25:52;1.70;;;1.20;;
18013;SDS011;9132;47.946;10.394;2022-07-29T05:28:18;1.45;;;1.35;;
18013;SDS011;9132;47.946;10.394;2022-07-29T05:30:46;2.22;;;1.50;;
18013;SDS011;9132;47.946;10.394;2022-07-29T05:33:13;1.42;;;1.33;;
18013;SDS011;9132;47.946;10.394;2022-07-29T05:35:39;1.40;;;1.30;;
18013;SDS011;9132;47.946;10.394;2022-07-29T05:38:05;1.95;;;1.45;;
18013;SDS011;9132;47.946;10.394;2022-07-29T05:40:32;2.75;;;1.58;;
18013;SDS011;9132;47.946;10.394;2022-07-29T05:42:59;3.95;;;1.88;;
18013;SDS011;9132;47.946;10.394;2022-07-29T05:45:25;2.58;;;1.50;;
18013;SDS011;9132;47.946;10.394;2022-07-29T05:47:53;2.40;;;1.40;;
18013;SDS011;9132;47.946;10.394;2022-07-29T05:50:20;2.22;;;1.40;;
18013;SDS011;9132;47.946;10.394;2022-07-29T05:52:46;2.97;;;1.40;;
18013;SDS011;9132;47.946;10.394;2022-07-29T05:55:12;2.33;;;1.10;;
18013;SDS011;9132;47.946;10.394;2022-07-29T05:57:38;2.13;;;1.38;;
18013;SDS011;9132;47.946;10.394;2022-07-29T06:00:05;3.42;;;1.40;;
18013;SDS011;9132;47.946;10.394;2022-07-29T06:02:32;1.40;;;1.30;;
18013;SDS011;9132;47.946;10.394;2022-07-29T06:05:00;1.35;;;1.25;;
18013;SDS011;9132;47.946;10.394;2022-07-29T06:07:26;1.63;;;1.45;;
18013;SDS011;9132;47.946;10.394;2022-07-29T06:09:52;2.20;;;1.20;;
18013;SDS011;9132;47.946;10.394;2022-07-29T06:12:19;1.50;;;1.20;;
18013;SDS011;9132;47.946;10.394;2022-07-29T06:14:45;1.42;;;1.33;;
18013;SDS011;9132;47.946;10.394;2022-07-29T06:17:12;1.42;;;1.33;;
18013;SDS011;9132;47.946;10.394;2022-07-29T06:19:38;1.50;;;1.40;;
18013;SDS011;9132;47.946;10.394;2022-07-29T06:22:05;1.52;;;1.23;;
18013;SDS011;9132;47.946;10.394;2022-07-29T06:24:32;1.77;;;1.40;;
18013;SDS011;9132;47.946;10.394;2022-07-29T06:26:58;1.30;;;1.20;;
18013;SDS011;9132;47.946;10.394;2022-07-29T06:29:24;1.30;;;1.20;;
18013;SDS011;9132;47.946;10.394;2022-07-29T06:31:51;2.35;;;1.20;;
18013;SDS011;9132;47.946;10.394;2022-07-29T06:34:17;1.42;;;1.33;;
18013;SDS011;9132;47.946;10.394;2022-07-29T06:36:44;1.50;;;1.40;;
18013;SDS011;9132;47.946;10.394;2022-07-29T06:39:12;1.45;;;1.35;;
18013;SDS011;9132;47.946;10.394;2022-07-29T06:41:38;1.40;;;1.30;;
18013;SDS011;9132;47.946;10.394;2022-07-29T06:44:05;1.73;;;1.45;;
18013;SDS011;9132;47.946;10.394;2022-07-29T06:46:31;1.45;;;1.35;;
18013;SDS011;9132;47.946;10.394;2022-07-29T06:48:57;2.50;;;1.30;;
18013;SDS011;9132;47.946;10.394;2022-07-29T06:51:23;1.85;;;1.30;;
18013;SDS011;9132;47.946;10.394;2022-07-29T06:53:50;2.00;;;1.50;;
18013;SDS011;9132;47.946;10.394;2022-07-29T06:56:18;1.30;;;1.13;;
18013;SDS011;9132;47.946;10.394;2022-07-29T06:58:45;1.27;;;1.17;;
18013;SDS011;9132;47.946;10.394;2022-07-29T07:01:11;1.38;;;1.27;;
18013;SDS011;9132;47.946;10.394;2022-07-29T07:03:37;2.08;;;1.40;;
18013;SDS011;9132;47.946;10.394;2022-07-29T07:06:04;1.63;;;1.48;;
18013;SDS011;9132;47.946;10.394;2022-07-29T07:08:30;1.48;;;1.30;;
18013;SDS011;9132;47.946;10.394;2022-07-29T07:10:56;1.50;;;1.20;;
18013;SDS011;9132;47.946;10.394;2022-07-29T07:13:24;1.35;;;1.25;;
18013;SDS011;9132;47.946;10.394;2022-07-29T07:15:50;1.65;;;1.35;;
18013;SDS011;9132;47.946;10.394;2022-07-29T07:18:17;1.25;;;1.15;;
18013;SDS011;9132;47.946;10.394;2022-07-29T07:20:44;1.48;;;1.38;;
18013;SDS011;9132;47.946;10.394;2022-07-29T07:23:10;1.65;;;1.48;;
18013;SDS011;9132;47.946;10.394;2022-07-29T07:25:36;1.50;;;1.40;;
18013;SDS011;9132;47.946;10.394;2022-07-29T07:28:03;5.28;;;1.50;;
18013;SDS011;9132;47.946;10.394;2022-07-29T07:30:31;1.73;;;1.50;;
18013;SDS011;9132;47.946;10.394;2022-07-29T07:32:57;1.50;;;1.40;;
18013;SDS011;9132;47.946;10.394;2022-07-29T07:35:24;1.45;;;1.35;;
18013;SDS011;9132;47.946;10.394;2022-07-29T07:37:51;1.60;;;1.50;;
18013;SDS011;9132;47.946;10.394;2022-07-29T07:40:17;1.35;;;1.25;;
18013;SDS011;9132;47.946;10.394;2022-07-29T07:42:44;1.48;;;1.38;;
18013;SDS011;9132;47.946;10.394;2022-07-29T07:45:10;4.32;;;1.35;;
18013;SDS011;9132;47.946;10.394;2022-07-29T07:47:39;2.80;;;1.50;;
18013;SDS011;9132;47.946;10.394;2022-07-29T07:50:06;1.52;;;1.42;;
18013;SDS011;9132;47.946;10.394;2022-07-29T07:52:33;1.45;;;1.35;;
18013;SDS011;9132;47.946;10.394;2022-07-29T07:54:59;1.60;;;1.50;;
18013;SDS011;9132;47.946;10.394;2022-07-29T07:57:26;1.60;;;1.50;;
18013;SDS011;9132;47.946;10.394;2022-07-29T07:59:52;6.03;;;2.25;;
18013;SDS011;9132;47.946;10.394;2022-07-29T08:02:18;3.03;;;1.75;;
18013;SDS011;9132;47.946;10.394;2022-07-29T08:04:46;1.45;;;1.35;;
18013;SDS011;9132;47.946;10.394;2022-07-29T08:07:12;3.97;;;1.70;;
18013;SDS011;9132;47.946;10.394;2022-07-29T08:09:39;1.88;;;1.50;;
18013;SDS011;9132;47.946;10.394;2022-07-29T08:12:06;4.28;;;1.65;;
18013;SDS011;9132;47.946;10.394;2022-07-29T08:14:33;1.75;;;1.58;;
18013;SDS011;9132;47.946;10.394;2022-07-29T08:16:59;1.70;;;1.60;;
18013;SDS011;9132;47.946;10.394;2022-07-29T08:19:25;2.42;;;1.67;;
18013;SDS011;9132;47.946;10.394;2022-07-29T08:21:53;1.65;;;1.55;;
18013;SDS011;9132;47.946;10.394;2022-07-29T08:24:20;2.15;;;1.77;;
18013;SDS011;9132;47.946;10.394;2022-07-29T08:27:04;4.82;;;2.25;;
18013;SDS011;9132;47.946;10.394;2022-07-29T08:29:30;2.15;;;1.95;;
18013;SDS011;9132;47.946;10.394;2022-07-29T08:31:57;2.95;;;1.80;;
18013;SDS011;9132;47.946;10.394;2022-07-29T08:34:23;3.88;;;1.98;;
18013;SDS011;9132;47.946;10.394;2022-07-29T08:36:49;2.88;;;1.98;;
18013;SDS011;9132;47.946;10.394;2022-07-29T08:39:18;3.08;;;1.90;;
18013;SDS011;9132;47.946;10.394;2022-07-29T08:41:44;2.35;;;1.83;;
18013;SDS011;9132;47.946;10.394;2022-07-29T08:44:10;3.00;;;1.98;;
18013;SDS011;9132;47.946;10.394;2022-07-29T08:46:37;5.15;;;2.05;;
18013;SDS011;9132;47.946;10.394;2022-07-29T08:49:03;3.65;;;1.85;;
18013;SDS011;9132;47.946;10.394;2022-07-29T08:51:29;2.10;;;1.90;;
18013;SDS011;9132;47.946;10.394;2022-07-29T08:53:56;2.00;;;1.70;;
18013;SDS011;9132;47.946;10.394;2022-07-29T08:56:24;5.15;;;2.03;;
18013;SDS011;9132;47.946;10.394;2022-07-29T08:58:51;1.70;;;1.60;;
18013;SDS011;9132;47.946;10.394;2022-07-29T09:01:20;2.60;;;1.80;;
18013;SDS011;9132;47.946;10.394;2022-07-29T09:03:47;3.00;;;1.98;;
18013;SDS011;9132;47.946;10.394;2022-07-29T09:06:15;2.63;;;1.65;;
18013;SDS011;9132;47.946;10.394;2022-07-29T09:08:43;2.83;;;2.05;;
18013;SDS011;9132;47.946;10.394;2022-07-29T09:11:09;1.83;;;1.73;;
18013;SDS011;9132;47.946;10.394;2022-07-29T09:13:37;11.98;;;2.63;;
18013;SDS011;9132;47.946;10.394;2022-07-29T09:16:04;2.67;;;1.73;;
18013;SDS011;9132;47.946;10.394;2022-07-29T09:18:34;16.77;;;3.10;;
18013;SDS011;9132;47.946;10.394;2022-07-29T09:21:00;2.10;;;1.90;;
18013;SDS011;9132;47.946;10.394;2022-07-29T09:23:58;2.95;;;1.90;;
18013;SDS011;9132;47.946;10.394;2022-07-29T09:26:27;2.65;;;2.10;;
18013;SDS011;9132;47.946;10.394;2022-07-29T09:28:55;1.63;;;1.52;;
18013;SDS011;9132;47.946;10.394;2022-07-29T09:31:24;1.73;;;1.60;;
18013;SDS011;9132;47.946;10.394;2022-07-29T09:33:57;8.88;;;2.28;;
18013;SDS011;9132;47.946;10.394;2022-07-29T09:36:25;2.05;;;1.85;;
18013;SDS011;9132;47.946;10.394;2022-07-29T09:38:56;2.72;;;1.70;;
18013;SDS011;9132;47.946;10.394;2022-07-29T09:41:23;3.90;;;2.00;;
18013;SDS011;9132;47.946;10.394;2022-07-29T09:43:54;3.65;;;2.00;;
18013;SDS011;9132;47.946;10.394;2022-07-29T09:46:20;6.25;;;2.38;;
18013;SDS011;9132;47.946;10.394;2022-07-29T09:48:52;2.20;;;1.70;;
18013;SDS011;9132;47.946;10.394;2022-07-29T09:51:31;2.10;;;1.90;;
18013;SDS011;9132;47.946;10.394;2022-07-29T09:53:57;3.00;;;1.92;;
18013;SDS011;9132;47.946;10.394;2022-07-29T09:56:37;3.90;;;2.00;;
18013;SDS011;9132;47.946;10.394;2022-07-29T09:59:06;3.28;;;1.80;;
18013;SDS011;9132;47.946;10.394;2022-07-29T10:01:33;3.60;;;1.90;;
18013;SDS011;9132;47.946;10.394;2022-07-29T10:03:59;1.60;;;1.50;;
18013;SDS011;9132;47.946;10.394;2022-07-29T10:06:26;1.42;;;1.33;;
18013;SDS011;9132;47.946;10.394;2022-07-29T10:08:52;2.78;;;1.83;;
18013;SDS011;9132;47.946;10.394;2022-07-29T10:11:19;3.08;;;1.90;;
18013;SDS011;9132;47.946;10.394;2022-07-29T10:13:46;2.15;;;1.30;;
18013;SDS011;9132;47.946;10.394;2022-07-29T10:16:14;2.05;;;1.85;;
18013;SDS011;9132;47.946;10.394;2022-07-29T10:18:41;1.80;;;1.67;;
18013;SDS011;9132;47.946;10.394;2022-07-29T10:21:08;1.58;;;1.40;;
18013;SDS011;9132;47.946;10.394;2022-07-29T10:23:35;2.05;;;1.40;;
18013;SDS011;9132;47.946;10.394;2022-07-29T10:26:01;1.48;;;1.38;;
18013;SDS011;9132;47.946;10.394;2022-07-29T10:28:28;1.60;;;1.50;;
18013;SDS011;9132;47.946;10.394;2022-07-29T10:30:58;2.78;;;1.40;;
18013;SDS011;9132;47.946;10.394;2022-07-29T10:33:30;1.63;;;1.45;;
18013;SDS011;9132;47.946;10.394;2022-07-29T10:36:04;2.40;;;1.73;;
18013;SDS011;9132;47.946;10.394;2022-07-29T10:38:37;2.35;;;1.48;;
18013;SDS011;9132;47.946;10.394;2022-07-29T10:41:11;3.30;;;1.45;;
18013;SDS011;9132;47.946;10.394;2022-07-29T10:43:54;1.58;;;1.30;;
18013;SDS011;9132;47.946;10.394;2022-07-29T10:46:21;3.00;;;1.60;;
18013;SDS011;9132;47.946;10.394;2022-07-29T10:49:11;1.83;;;1.70;;
18013;SDS011;9132;47.946;10.394;2022-07-29T10:51:55;3.25;;;1.50;;
18013;SDS011;9132;47.946;10.394;2022-07-29T10:54:41;2.38;;;1.67;;
18013;SDS011;9132;47.946;10.394;2022-07-29T10:57:14;2.65;;;2.05;;
18013;SDS011;9132;47.946;10.394;2022-07-29T10:59:40;4.10;;;1.95;;
18013;SDS011;9132;47.946;10.394;2022-07-29T11:05:00;1.90;;;1.80;;
18013;SDS011;9132;47.946;10.394;2022-07-29T11:07:28;2.13;;;1.90;;
18013;SDS011;9132;47.946;10.394;2022-07-29T11:12:46;4.05;;;1.80;;
18013;SDS011;9132;47.946;10.394;2022-07-29T11:15:13;4.20;;;1.80;;
18013;SDS011;9132;47.946;10.394;2022-07-29T11:20:34;5.20;;;1.90;;
18013;SDS011;9132;47.946;10.394;2022-07-29T11:23:00;2.30;;;1.88;;
18013;SDS011;9132;47.946;10.394;2022-07-29T11:25:27;4.25;;;1.90;;
18013;SDS011;9132;47.946;10.394;2022-07-29T11:27:54;1.83;;;1.73;;
18013;SDS011;9132;47.946;10.394;2022-07-29T11:30:46;2.38;;;1.55;;
18013;SDS011;9132;47.946;10.394;2022-07-29T11:33:26;2.38;;;1.90;;
18013;SDS011;9132;47.946;10.394;2022-07-29T11:38:35;3.28;;;1.92;;
18013;SDS011;9132;47.946;10.394;2022-07-29T11:41:20;2.60;;;1.92;;
18013;SDS011;9132;47.946;10.394;2022-07-29T11:43:47;1.90;;;1.80;;
18013;SDS011;9132;47.946;10.394;2022-07-29T11:46:14;1.90;;;1.80;;
18013;SDS011;9132;47.946;10.394;2022-07-29T11:48:41;1.83;;;1.73;;
18013;SDS011;9132;47.946;10.394;2022-07-29T11:51:08;3.88;;;2.20;;
18013;SDS011;9132;47.946;10.394;2022-07-29T11:53:36;3.08;;;2.25;;
18013;SDS011;9132;47.946;10.394;2022-07-29T11:56:03;3.30;;;2.17;;
18013;SDS011;9132;47.946;10.394;2022-07-29T11:58:30;4.35;;;2.60;;
18013;SDS011;9132;47.946;10.394;2022-07-29T12:00:56;3.45;;;1.95;;
18013;SDS011;9132;47.946;10.394;2022-07-29T12:03:23;2.40;;;2.15;;
18013;SDS011;9132;47.946;10.394;2022-07-29T12:05:50;2.40;;;2.20;;
18013;SDS011;9132;47.946;10.394;2022-07-29T12:08:17;3.20;;;2.25;;
18013;SDS011;9132;47.946;10.394;2022-07-29T12:10:46;2.00;;;1.90;;
18013;SDS011;9132;47.946;10.394;2022-07-29T12:13:13;2.35;;;2.15;;
18013;SDS011;9132;47.946;10.394;2022-07-29T12:15:40;2.05;;;1.90;;
18013;SDS011;9132;47.946;10.394;2022-07-29T12:18:10;2.30;;;2.10;;
18013;SDS011;9132;47.946;10.394;2022-07-29T12:20:36;2.40;;;2.20;;
18013;SDS011;9132;47.946;10.394;2022-07-29T12:23:04;2.17;;;2.00;;
18013;SDS011;9132;47.946;10.394;2022-07-29T12:25:32;15.45;;;3.13;;
18013;SDS011;9132;47.946;10.394;2022-07-29T12:28:01;6.82;;;2.00;;
18013;SDS011;9132;47.946;10.394;2022-07-29T12:30:37;2.20;;;2.10;;
18013;SDS011;9132;47.946;10.394;2022-07-29T12:33:10;1.70;;;1.50;;
18013;SDS011;9132;47.946;10.394;2022-07-29T12:35:36;2.30;;;1.85;;
18013;SDS011;9132;47.946;10.394;2022-07-29T12:38:02;3.53;;;1.58;;
18013;SDS011;9132;47.946;10.394;2022-07-29T12:40:29;2.88;;;1.48;;
18013;SDS011;9132;47.946;10.394;2022-07-29T12:43:06;7.88;;;1.95;;
18013;SDS011;9132;47.946;10.394;2022-07-29T12:45:34;1.92;;;1.83;;
18013;SDS011;9132;47.946;10.394;2022-07-29T12:48:01;2.33;;;1.80;;
18013;SDS011;9132;47.946;10.394;2022-07-29T12:50:27;1.98;;;1.73;;
18013;SDS011;9132;47.946;10.394;2022-07-29T12:52:54;1.73;;;1.48;;
18013;SDS011;9132;47.946;10.394;2022-07-29T12:55:39;3.60;;;1.60;;
18013;SDS011;9132;47.946;10.394;2022-07-29T12:58:07;2.25;;;1.75;;
18013;SDS011;9132;47.946;10.394;2022-07-29T13:00:33;7.45;;;1.77;;
18013;SDS011;9132;47.946;10.394;2022-07-29T13:03:00;1.45;;;1.13;;
18013;SDS011;9132;47.946;10.394;2022-07-29T13:05:38;1.25;;;1.15;;
18013;SDS011;9132;47.946;10.394;2022-07-29T13:08:11;1.20;;;1.13;;
18013;SDS011;9132;47.946;10.394;2022-07-29T13:10:37;1.05;;;1.05;;
18013;SDS011;9132;47.946;10.394;2022-07-29T13:13:04;1.90;;;1.17;;
18013;SDS011;9132;47.946;10.394;2022-07-29T13:15:32;1.95;;;1.30;;
18013;SDS011;9132;47.946;10.394;2022-07-29T13:17:59;7.65;;;2.00;;
18013;SDS011;9132;47.946;10.394;2022-07-29T13:20:26;1.58;;;1.48;;
18013;SDS011;9132;47.946;10.394;2022-07-29T13:22:54;1.38;;;1.23;;
18013;SDS011;9132;47.946;10.394;2022-07-29T13:25:24;1.60;;;1.40;;
18013;SDS011;9132;47.946;10.394;2022-07-29T13:27:50;20.30;;;2.75;;
18013;SDS011;9132;47.946;10.394;2022-07-29T13:30:19;3.17;;;1.40;;
18013;SDS011;9132;47.946;10.394;2022-07-29T13:32:46;1.70;;;1.60;;
18013;SDS011;9132;47.946;10.394;2022-07-29T13:35:13;1.92;;;1.73;;
18013;SDS011;9132;47.946;10.394;2022-07-29T13:37:39;1.88;;;1.70;;
18013;SDS011;9132;47.946;10.394;2022-07-29T13:40:06;1.70;;;1.48;;
18013;SDS011;9132;47.946;10.394;2022-07-29T13:42:32;1.40;;;1.30;;
18013;SDS011;9132;47.946;10.394;2022-07-29T13:44:59;1.50;;;1.40;;
18013;SDS011;9132;47.946;10.394;2022-07-29T13:47:25;1.67;;;1.38;;
18013;SDS011;9132;47.946;10.394;2022-07-29T13:49:53;1.50;;;1.35;;
18013;SDS011;9132;47.946;10.394;2022-07-29T13:52:19;1.10;;;1.10;;
18013;SDS011;9132;47.946;10.394;2022-07-29T13:54:47;1.60;;;1.20;;
18013;SDS011;9132;47.946;10.394;2022-07-29T13:57:14;1.67;;;1.20;;
18013;SDS011;9132;47.946;10.394;2022-07-29T13:59:40;1.30;;;1.20;;
18013;SDS011;9132;47.946;10.394;2022-07-29T14:02:06;1.30;;;1.20;;
18013;SDS011;9132;47.946;10.394;2022-07-29T14:04:33;1.35;;;1.25;;
18013;SDS011;9132;47.946;10.394;2022-07-29T14:07:00;1.40;;;1.30;;
18013;SDS011;9132;47.946;10.394;2022-07-29T14:09:27;1.13;;;1.13;;
18013;SDS011;9132;47.946;10.394;2022-07-29T14:11:53;1.20;;;1.10;;
18013;SDS011;9132;47.946;10.394;2022-07-29T14:14:19;1.30;;;1.20;;
18013;SDS011;9132;47.946;10.394;2022-07-29T14:16:46;1.30;;;1.20;;
18013;SDS011;9132;47.946;10.394;2022-07-29T14:19:12;1.63;;;1.25;;
18013;SDS011;9132;47.946;10.394;2022-07-29T14:21:38;1.50;;;1.20;;
18013;SDS011;9132;47.946;10.394;2022-07-29T14:24:06;1.35;;;1.20;;
18013;SDS011;9132;47.946;10.394;2022-07-29T14:26:32;1.17;;;1.08;;
18013;SDS011;9132;47.946;10.394;2022-07-29T14:28:59;1.40;;;1.30;;
18013;SDS011;9132;47.946;10.394;2022-07-29T14:31:25;2.55;;;1.60;;
18013;SDS011;9132;47.946;10.394;2022-07-29T14:33:51;1.42;;;1.25;;
18013;SDS011;9132;47.946;10.394;2022-07-29T14:36:18;1.63;;;1.50;;
18013;SDS011;9132;47.946;10.394;2022-07-29T14:38:44;2.15;;;1.40;;
18013;SDS011;9132;47.946;10.394;2022-07-29T14:41:11;1.60;;;1.35;;
18013;SDS011;9132;47.946;10.394;2022-07-29T14:43:38;1.70;;;1.50;;
18013;SDS011;9132;47.946;10.394;2022-07-29T14:46:04;2.15;;;1.60;;
18013;SDS011;9132;47.946;10.394;2022-07-29T14:48:32;1.95;;;1.35;;
18013;SDS011;9132;47.946;10.394;2022-07-29T14:50:58;1.60;;;1.50;;
18013;SDS011;9132;47.946;10.394;2022-07-29T14:53:24;2.38;;;1.40;;
18013;SDS011;9132;47.946;10.394;2022-07-29T14:55:51;1.58;;;1.48;;
18013;SDS011;9132;47.946;10.394;2022-07-29T14:58:18;1.30;;;1.20;;
18013;SDS011;9132;47.946;10.394;2022-07-29T15:00:46;2.65;;;1.63;;
18013;SDS011;9132;47.946;10.394;2022-07-29T15:03:12;2.22;;;1.65;;